sensor_id;sensor_type;location;lat;lon;timestamp;P1;durP1;ratioP1;P2;durP2;ratioP2
3121;SDS011;1571;52.524;14.104;2022-08-18T00:01:08;11.97;;;10.17;;
3121;SDS011;1571;52.524;14.104;2022-08-18T00:03:43;12.93;;;8.47;;
3121;SDS011;1571;52.524;14.104;2022-08-18T00:06:26;10.40;;;9.37;;
3121;SDS011;1571;52.524;14.104;2022-08-18T00:08:56;9.47;;;8.67;;
3121;SDS011;1571;52.524;14.104;2022-08-18T00:11:26;10.47;;;9.40;;
3121;SDS011;1571;52.524;14.104;2022-08-18T00:14:09;10.80;;;9.87;;
3121;SDS011;1571;52.524;14.104;2022-08-18T00:16:50;12.30;;;9.80;;
3121;SDS011;1571;52.524;14.104;2022-08-18T00:19:22;11.40;;;10.33;;
3121;SDS011;1571;52.524;14.104;2022-08-18T00:22:12;11.47;;;9.63;;
3121;SDS011;1571;52.524;14.104;2022-08-18T00:24:43;12.60;;;11.30;;
3121;SDS011;1571;52.524;14.104;2022-08-18T00:27:18;14.37;;;9.30;;
3121;SDS011;1571;52.524;14.104;2022-08-18T00:29:50;11.27;;;10.20;;
3121;SDS011;1571;52.524;14.104;2022-08-18T00:32:20;11.30;;;9.70;;
3121;SDS011;1571;52.524;14.104;2022-08-18T00:34:51;9.87;;;9.17;;
3121;SDS011;1571;52.524;14.104;2022-08-18T00:37:20;10.33;;;9.27;;
3121;SDS011;1571;52.524;14.104;2022-08-18T00:39:51;14.80;;;10.90;;
3121;SDS011;1571;52.524;14.104;2022-08-18T00:42:21;19.23;;;10.20;;
3121;SDS011;1571;52.524;14.104;2022-08-18T00:44:57;12.57;;;9.43;;
3121;SDS011;1571;52.524;14.104;2022-08-18T00:47:27;14.03;;;10.30;;
3121;SDS011;1571;52.524;14.104;2022-08-18T00:50:11;10.10;;;9.20;;
3121;SDS011;1571;52.524;14.104;2022-08-18T00:52:44;13.17;;;10.93;;
3121;SDS011;1571;52.524;14.104;2022-08-18T00:55:19;14.27;;;10.90;;
3121;SDS011;1571;52.524;14.104;2022-08-18T00:57:50;11.00;;;9.80;;
3121;SDS011;1571;52.524;14.104;2022-08-18T01:00:21;13.60;;;11.00;;
3121;SDS011;1571;52.524;14.104;2022-08-18T01:02:50;11.90;;;10.70;;
3121;SDS011;1571;52.524;14.104;2022-08-18T01:05:25;11.47;;;10.30;;
3121;SDS011;1571;52.524;14.104;2022-08-18T01:07:58;15.13;;;10.27;;
3121;SDS011;1571;52.524;14.104;2022-08-18T01:10:26;11.50;;;10.40;;
3121;SDS011;1571;52.524;14.104;2022-08-18T01:12:55;12.43;;;11.10;;
3121;SDS011;1571;52.524;14.104;2022-08-18T01:15:25;12.07;;;10.97;;
3121;SDS011;1571;52.524;14.104;2022-08-18T01:17:57;10.13;;;9.43;;
3121;SDS011;1571;52.524;14.104;2022-08-18T01:20:49;11.40;;;10.40;;
3121;SDS011;1571;52.524;14.104;2022-08-18T01:23:42;10.83;;;9.80;;
3121;SDS011;1571;52.524;14.104;2022-08-18T01:26:12;11.13;;;10.13;;
3121;SDS011;1571;52.524;14.104;2022-08-18T01:28:43;11.80;;;10.73;;
3121;SDS011;1571;52.524;14.104;2022-08-18T01:31:28;12.20;;;10.90;;
3121;SDS011;1571;52.524;14.104;2022-08-18T01:33:59;13.77;;;11.00;;
3121;SDS011;1571;52.524;14.104;2022-08-18T01:36:27;11.37;;;10.40;;
3121;SDS011;1571;52.524;14.104;2022-08-18T01:38:57;13.20;;;10.97;;
3121;SDS011;1571;52.524;14.104;2022-08-18T01:41:26;12.37;;;11.17;;
3121;SDS011;1571;52.524;14.104;2022-08-18T01:43:57;13.93;;;11.30;;
3121;SDS011;1571;52.524;14.104;2022-08-18T01:46:27;10.57;;;9.67;;
3121;SDS011;1571;52.524;14.104;2022-08-18T01:48:57;11.20;;;10.10;;
3121;SDS011;1571;52.524;14.104;2022-08-18T01:51:27;13.17;;;11.80;;
3121;SDS011;1571;52.524;14.104;2022-08-18T01:54:08;13.30;;;11.40;;
3121;SDS011;1571;52.524;14.104;2022-08-18T01:56:38;11.90;;;10.70;;
3121;SDS011;1571;52.524;14.104;2022-08-18T01:59:08;11.60;;;10.70;;
3121;SDS011;1571;52.524;14.104;2022-08-18T02:01:41;13.37;;;12.23;;
3121;SDS011;1571;52.524;14.104;2022-08-18T02:04:20;12.53;;;11.33;;
3121;SDS011;1571;52.524;14.104;2022-08-18T02:07:07;11.60;;;10.50;;
3121;SDS011;1571;52.524;14.104;2022-08-18T02:09:39;11.97;;;10.97;;
3121;SDS011;1571;52.524;14.104;2022-08-18T02:12:09;13.13;;;11.53;;
3121;SDS011;1571;52.524;14.104;2022-08-18T02:14:38;13.87;;;11.37;;
3121;SDS011;1571;52.524;14.104;2022-08-18T02:17:07;14.93;;;10.20;;
3121;SDS011;1571;52.524;14.104;2022-08-18T02:19:37;11.10;;;10.17;;
3121;SDS011;1571;52.524;14.104;2022-08-18T02:22:08;15.30;;;11.43;;
3121;SDS011;1571;52.524;14.104;2022-08-18T02:24:39;12.50;;;11.40;;
3121;SDS011;1571;52.524;14.104;2022-08-18T02:27:08;12.10;;;11.00;;
3121;SDS011;1571;52.524;14.104;2022-08-18T02:29:38;14.07;;;12.70;;
3121;SDS011;1571;52.524;14.104;2022-08-18T02:32:07;13.23;;;11.93;;
3121;SDS011;1571;52.524;14.104;2022-08-18T02:34:35;13.00;;;11.70;;
3121;SDS011;1571;52.524;14.104;2022-08-18T02:37:04;11.83;;;10.83;;
3121;SDS011;1571;52.524;14.104;2022-08-18T02:39:32;12.63;;;11.17;;
3121;SDS011;1571;52.524;14.104;2022-08-18T02:42:03;12.73;;;11.27;;
3121;SDS011;1571;52.524;14.104;2022-08-18T02:44:32;14.43;;;12.53;;
3121;SDS011;1571;52.524;14.104;2022-08-18T02:47:00;12.23;;;11.03;;
3121;SDS011;1571;52.524;14.104;2022-08-18T02:49:29;14.57;;;12.20;;
3121;SDS011;1571;52.524;14.104;2022-08-18T02:51:57;13.43;;;12.23;;
3121;SDS011;1571;52.524;14.104;2022-08-18T02:54:25;12.20;;;11.10;;
3121;SDS011;1571;52.524;14.104;2022-08-18T02:56:53;13.57;;;12.50;;
3121;SDS011;1571;52.524;14.104;2022-08-18T02:59:24;13.30;;;12.00;;
3121;SDS011;1571;52.524;14.104;2022-08-18T03:01:57;12.73;;;10.63;;
3121;SDS011;1571;52.524;14.104;2022-08-18T03:04:26;13.40;;;12.40;;
3121;SDS011;1571;52.524;14.104;2022-08-18T03:06:57;13.90;;;12.40;;
3121;SDS011;1571;52.524;14.104;2022-08-18T03:09:28;12.47;;;11.33;;
3121;SDS011;1571;52.524;14.104;2022-08-18T03:11:57;14.40;;;11.63;;
3121;SDS011;1571;52.524;14.104;2022-08-18T03:14:27;11.73;;;10.60;;
3121;SDS011;1571;52.524;14.104;2022-08-18T03:16:56;12.80;;;11.70;;
3121;SDS011;1571;52.524;14.104;2022-08-18T03:19:25;14.20;;;12.77;;
3121;SDS011;1571;52.524;14.104;2022-08-18T03:21:55;12.73;;;11.53;;
3121;SDS011;1571;52.524;14.104;2022-08-18T03:24:28;13.23;;;12.03;;
3121;SDS011;1571;52.524;14.104;2022-08-18T03:26:58;13.60;;;12.10;;
3121;SDS011;1571;52.524;14.104;2022-08-18T03:29:29;14.40;;;12.80;;
3121;SDS011;1571;52.524;14.104;2022-08-18T03:31:59;16.53;;;13.20;;
3121;SDS011;1571;52.524;14.104;2022-08-18T03:34:28;16.50;;;12.83;;
3121;SDS011;1571;52.524;14.104;2022-08-18T03:36:58;17.33;;;11.77;;
3121;SDS011;1571;52.524;14.104;2022-08-18T03:39:26;13.67;;;12.27;;
3121;SDS011;1571;52.524;14.104;2022-08-18T03:41:56;13.47;;;12.20;;
3121;SDS011;1571;52.524;14.104;2022-08-18T03:44:29;13.90;;;11.90;;
3121;SDS011;1571;52.524;14.104;2022-08-18T03:46:59;12.57;;;11.33;;
3121;SDS011;1571;52.524;14.104;2022-08-18T03:49:30;12.70;;;11.60;;
3121;SDS011;1571;52.524;14.104;2022-08-18T03:52:00;12.63;;;11.33;;
3121;SDS011;1571;52.524;14.104;2022-08-18T03:54:29;13.60;;;12.13;;
3121;SDS011;1571;52.524;14.104;2022-08-18T03:56:59;16.50;;;12.57;;
3121;SDS011;1571;52.524;14.104;2022-08-18T03:59:29;12.20;;;11.30;;
3121;SDS011;1571;52.524;14.104;2022-08-18T04:02:00;13.37;;;11.93;;
3121;SDS011;1571;52.524;14.104;2022-08-18T04:04:30;12.83;;;11.63;;
3121;SDS011;1571;52.524;14.104;2022-08-18T04:07:00;13.50;;;11.70;;
3121;SDS011;1571;52.524;14.104;2022-08-18T04:09:32;13.07;;;11.80;;
3121;SDS011;1571;52.524;14.104;2022-08-18T04:12:02;22.83;;;13.23;;
3121;SDS011;1571;52.524;14.104;2022-08-18T04:14:44;14.43;;;12.53;;
3121;SDS011;1571;52.524;14.104;2022-08-18T04:17:15;14.57;;;13.00;;
3121;SDS011;1571;52.524;14.104;2022-08-18T04:19:46;14.17;;;12.70;;
3121;SDS011;1571;52.524;14.104;2022-08-18T04:22:14;15.20;;;13.77;;
3121;SDS011;1571;52.524;14.104;2022-08-18T04:24:44;17.93;;;15.07;;
3121;SDS011;1571;52.524;14.104;2022-08-18T04:27:15;13.50;;;12.30;;
3121;SDS011;1571;52.524;14.104;2022-08-18T04:29:46;14.33;;;12.73;;
3121;SDS011;1571;52.524;14.104;2022-08-18T04:32:14;16.10;;;12.77;;
3121;SDS011;1571;52.524;14.104;2022-08-18T04:34:43;15.07;;;13.53;;
3121;SDS011;1571;52.524;14.104;2022-08-18T04:37:11;13.93;;;12.63;;
3121;SDS011;1571;52.524;14.104;2022-08-18T04:39:41;15.57;;;13.77;;
3121;SDS011;1571;52.524;14.104;2022-08-18T04:42:11;15.20;;;13.80;;
3121;SDS011;1571;52.524;14.104;2022-08-18T04:44:39;14.40;;;13.00;;
3121;SDS011;1571;52.524;14.104;2022-08-18T04:47:09;15.50;;;14.07;;
3121;SDS011;1571;52.524;14.104;2022-08-18T04:49:39;18.90;;;14.47;;
3121;SDS011;1571;52.524;14.104;2022-08-18T04:52:07;17.00;;;15.30;;
3121;SDS011;1571;52.524;14.104;2022-08-18T04:55:07;15.27;;;13.17;;
3121;SDS011;1571;52.524;14.104;2022-08-18T04:57:37;13.60;;;12.40;;
3121;SDS011;1571;52.524;14.104;2022-08-18T05:00:06;17.73;;;13.83;;
3121;SDS011;1571;52.524;14.104;2022-08-18T05:02:39;20.50;;;14.17;;
3121;SDS011;1571;52.524;14.104;2022-08-18T05:05:07;15.73;;;12.50;;
3121;SDS011;1571;52.524;14.104;2022-08-18T05:07:41;13.93;;;12.43;;
3121;SDS011;1571;52.524;14.104;2022-08-18T05:10:12;16.10;;;13.20;;
3121;SDS011;1571;52.524;14.104;2022-08-18T05:12:45;18.20;;;13.80;;
3121;SDS011;1571;52.524;14.104;2022-08-18T05:15:14;15.00;;;13.33;;
3121;SDS011;1571;52.524;14.104;2022-08-18T05:17:44;16.87;;;13.20;;
3121;SDS011;1571;52.524;14.104;2022-08-18T05:20:17;17.33;;;13.23;;
3121;SDS011;1571;52.524;14.104;2022-08-18T05:22:47;14.17;;;12.50;;
3121;SDS011;1571;52.524;14.104;2022-08-18T05:25:15;19.10;;;14.97;;
3121;SDS011;1571;52.524;14.104;2022-08-18T05:27:43;14.60;;;13.20;;
3121;SDS011;1571;52.524;14.104;2022-08-18T05:30:12;19.53;;;15.17;;
3121;SDS011;1571;52.524;14.104;2022-08-18T05:32:42;12.93;;;11.93;;
3121;SDS011;1571;52.524;14.104;2022-08-18T05:35:19;17.33;;;13.73;;
3121;SDS011;1571;52.524;14.104;2022-08-18T05:37:53;14.43;;;12.93;;
3121;SDS011;1571;52.524;14.104;2022-08-18T05:40:33;18.80;;;14.20;;
3121;SDS011;1571;52.524;14.104;2022-08-18T05:43:03;16.60;;;12.80;;
3121;SDS011;1571;52.524;14.104;2022-08-18T05:45:33;18.50;;;13.67;;
3121;SDS011;1571;52.524;14.104;2022-08-18T05:48:02;14.83;;;13.37;;
3121;SDS011;1571;52.524;14.104;2022-08-18T05:50:33;16.13;;;14.63;;
3121;SDS011;1571;52.524;14.104;2022-08-18T05:53:05;15.63;;;14.00;;
3121;SDS011;1571;52.524;14.104;2022-08-18T05:55:41;21.27;;;13.80;;
3121;SDS011;1571;52.524;14.104;2022-08-18T05:58:34;17.57;;;13.73;;
3121;SDS011;1571;52.524;14.104;2022-08-18T06:01:10;15.37;;;13.97;;
3121;SDS011;1571;52.524;14.104;2022-08-18T06:03:45;16.37;;;14.77;;
3121;SDS011;1571;52.524;14.104;2022-08-18T06:06:19;15.87;;;13.93;;
3121;SDS011;1571;52.524;14.104;2022-08-18T06:08:51;16.00;;;14.37;;
3121;SDS011;1571;52.524;14.104;2022-08-18T06:11:24;16.93;;;14.87;;
3121;SDS011;1571;52.524;14.104;2022-08-18T06:13:52;16.80;;;14.30;;
3121;SDS011;1571;52.524;14.104;2022-08-18T06:16:31;17.33;;;15.33;;
3121;SDS011;1571;52.524;14.104;2022-08-18T06:19:16;16.10;;;14.50;;
3121;SDS011;1571;52.524;14.104;2022-08-18T06:21:58;16.90;;;13.83;;
3121;SDS011;1571;52.524;14.104;2022-08-18T06:24:35;16.03;;;14.33;;
3121;SDS011;1571;52.524;14.104;2022-08-18T06:27:09;15.13;;;13.40;;
3121;SDS011;1571;52.524;14.104;2022-08-18T06:29:49;14.10;;;12.80;;
3121;SDS011;1571;52.524;14.104;2022-08-18T06:32:34;28.10;;;14.10;;
3121;SDS011;1571;52.524;14.104;2022-08-18T06:35:15;15.07;;;13.33;;
3121;SDS011;1571;52.524;14.104;2022-08-18T06:37:54;15.17;;;13.57;;
3121;SDS011;1571;52.524;14.104;2022-08-18T06:40:48;15.63;;;14.13;;
3121;SDS011;1571;52.524;14.104;2022-08-18T06:43:27;14.93;;;13.47;;
3121;SDS011;1571;52.524;14.104;2022-08-18T06:46:00;15.47;;;13.97;;
3121;SDS011;1571;52.524;14.104;2022-08-18T06:48:31;14.90;;;12.80;;
3121;SDS011;1571;52.524;14.104;2022-08-18T06:51:05;16.47;;;13.03;;
3121;SDS011;1571;52.524;14.104;2022-08-18T06:53:53;13.53;;;12.33;;
3121;SDS011;1571;52.524;14.104;2022-08-18T06:56:25;17.40;;;13.43;;
3121;SDS011;1571;52.524;14.104;2022-08-18T07:01:47;14.37;;;12.87;;
3121;SDS011;1571;52.524;14.104;2022-08-18T07:04:35;14.07;;;12.40;;
3121;SDS011;1571;52.524;14.104;2022-08-18T07:07:13;17.50;;;12.93;;
3121;SDS011;1571;52.524;14.104;2022-08-18T07:09:46;15.20;;;12.70;;
3121;SDS011;1571;52.524;14.104;2022-08-18T07:12:19;15.20;;;13.27;;
3121;SDS011;1571;52.524;14.104;2022-08-18T07:14:57;20.93;;;13.53;;
3121;SDS011;1571;52.524;14.104;2022-08-18T07:17:28;13.70;;;11.53;;
3121;SDS011;1571;52.524;14.104;2022-08-18T07:20:16;13.77;;;12.37;;
3121;SDS011;1571;52.524;14.104;2022-08-18T07:22:51;23.47;;;14.20;;
3121;SDS011;1571;52.524;14.104;2022-08-18T07:25:24;30.63;;;12.50;;
3121;SDS011;1571;52.524;14.104;2022-08-18T07:27:55;27.13;;;12.93;;
3121;SDS011;1571;52.524;14.104;2022-08-18T07:30:27;21.10;;;13.33;;
3121;SDS011;1571;52.524;14.104;2022-08-18T07:33:00;24.90;;;14.40;;
3121;SDS011;1571;52.524;14.104;2022-08-18T07:35:36;17.10;;;12.30;;
3121;SDS011;1571;52.524;14.104;2022-08-18T07:38:08;27.80;;;12.73;;
3121;SDS011;1571;52.524;14.104;2022-08-18T07:41:05;22.40;;;11.33;;
3121;SDS011;1571;52.524;14.104;2022-08-18T07:43:40;20.33;;;12.10;;
3121;SDS011;1571;52.524;14.104;2022-08-18T07:46:20;13.80;;;11.70;;
3121;SDS011;1571;52.524;14.104;2022-08-18T07:48:54;15.67;;;12.07;;
3121;SDS011;1571;52.524;14.104;2022-08-18T07:51:28;12.40;;;11.10;;
3121;SDS011;1571;52.524;14.104;2022-08-18T07:54:16;16.97;;;11.47;;
3121;SDS011;1571;52.524;14.104;2022-08-18T07:57:15;15.17;;;12.30;;
3121;SDS011;1571;52.524;14.104;2022-08-18T07:59:53;13.27;;;11.97;;
3121;SDS011;1571;52.524;14.104;2022-08-18T08:02:39;13.77;;;12.47;;
3121;SDS011;1571;52.524;14.104;2022-08-18T08:05:24;12.77;;;11.57;;
3121;SDS011;1571;52.524;14.104;2022-08-18T08:08:09;14.27;;;11.83;;
3121;SDS011;1571;52.524;14.104;2022-08-18T08:10:55;16.40;;;11.93;;
3121;SDS011;1571;52.524;14.104;2022-08-18T08:13:39;13.70;;;12.30;;
3121;SDS011;1571;52.524;14.104;2022-08-18T08:16:24;12.57;;;10.90;;
3121;SDS011;1571;52.524;14.104;2022-08-18T08:19:04;12.57;;;11.47;;
3121;SDS011;1571;52.524;14.104;2022-08-18T08:21:43;12.37;;;11.17;;
3121;SDS011;1571;52.524;14.104;2022-08-18T08:24:19;17.10;;;11.73;;
3121;SDS011;1571;52.524;14.104;2022-08-18T08:26:56;16.67;;;12.20;;
3121;SDS011;1571;52.524;14.104;2022-08-18T08:29:36;13.33;;;11.30;;
3121;SDS011;1571;52.524;14.104;2022-08-18T08:32:12;13.80;;;12.07;;
3121;SDS011;1571;52.524;14.104;2022-08-18T08:34:43;12.87;;;11.07;;
3121;SDS011;1571;52.524;14.104;2022-08-18T08:37:17;21.97;;;12.53;;
3121;SDS011;1571;52.524;14.104;2022-08-18T08:39:51;13.17;;;10.47;;
3121;SDS011;1571;52.524;14.104;2022-08-18T08:42:24;11.97;;;10.87;;
3121;SDS011;1571;52.524;14.104;2022-08-18T08:45:09;17.50;;;10.40;;
3121;SDS011;1571;52.524;14.104;2022-08-18T08:47:44;13.20;;;10.47;;
3121;SDS011;1571;52.524;14.104;2022-08-18T08:50:19;11.53;;;10.43;;
3121;SDS011;1571;52.524;14.104;2022-08-18T08:52:53;12.37;;;10.40;;
3121;SDS011;1571;52.524;14.104;2022-08-18T08:55:25;11.60;;;10.70;;
3121;SDS011;1571;52.524;14.104;2022-08-18T08:57:58;11.83;;;10.83;;
3121;SDS011;1571;52.524;14.104;2022-08-18T09:00:38;12.13;;;9.93;;
3121;SDS011;1571;52.524;14.104;2022-08-18T09:03:17;11.47;;;10.37;;
3121;SDS011;1571;52.524;14.104;2022-08-18T09:05:59;11.93;;;10.83;;
3121;SDS011;1571;52.524;14.104;2022-08-18T09:08:39;11.60;;;10.50;;
3121;SDS011;1571;52.524;14.104;2022-08-18T09:14:36;12.17;;;9.87;;
3121;SDS011;1571;52.524;14.104;2022-08-18T09:17:25;11.70;;;10.70;;
3121;SDS011;1571;52.524;14.104;2022-08-18T09:20:14;10.53;;;9.63;;
3121;SDS011;1571;52.524;14.104;2022-08-18T09:23:03;15.30;;;10.20;;
3121;SDS011;1571;52.524;14.104;2022-08-18T09:25:43;11.57;;;10.67;;
3121;SDS011;1571;52.524;14.104;2022-08-18T09:28:15;10.57;;;9.13;;
3121;SDS011;1571;52.524;14.104;2022-08-18T09:30:46;11.03;;;10.03;;
3121;SDS011;1571;52.524;14.104;2022-08-18T09:33:42;10.47;;;9.47;;
3121;SDS011;1571;52.524;14.104;2022-08-18T09:36:22;13.37;;;9.40;;
3121;SDS011;1571;52.524;14.104;2022-08-18T09:39:01;10.40;;;8.90;;
3121;SDS011;1571;52.524;14.104;2022-08-18T09:42:06;17.73;;;10.27;;
3121;SDS011;1571;52.524;14.104;2022-08-18T09:44:58;17.37;;;10.33;;
3121;SDS011;1571;52.524;14.104;2022-08-18T09:53:36;10.70;;;9.50;;
3121;SDS011;1571;52.524;14.104;2022-08-18T10:05:37;13.20;;;9.37;;
3121;SDS011;1571;52.524;14.104;2022-08-18T10:08:27;11.63;;;9.60;;
3121;SDS011;1571;52.524;14.104;2022-08-18T10:11:17;11.07;;;9.90;;
3121;SDS011;1571;52.524;14.104;2022-08-18T10:14:01;14.53;;;8.80;;
3121;SDS011;1571;52.524;14.104;2022-08-18T10:16:45;12.93;;;9.90;;
3121;SDS011;1571;52.524;14.104;2022-08-18T10:19:47;17.53;;;11.30;;
3121;SDS011;1571;52.524;14.104;2022-08-18T10:22:33;12.60;;;9.77;;
3121;SDS011;1571;52.524;14.104;2022-08-18T10:25:07;13.73;;;9.83;;
3121;SDS011;1571;52.524;14.104;2022-08-18T10:27:50;12.17;;;10.80;;
3121;SDS011;1571;52.524;14.104;2022-08-18T10:36:45;18.03;;;9.60;;
3121;SDS011;1571;52.524;14.104;2022-08-18T10:39:18;10.93;;;9.90;;
3121;SDS011;1571;52.524;14.104;2022-08-18T10:41:52;10.60;;;9.50;;
3121;SDS011;1571;52.524;14.104;2022-08-18T10:44:24;10.33;;;9.40;;
3121;SDS011;1571;52.524;14.104;2022-08-18T10:47:21;11.77;;;8.40;;
3121;SDS011;1571;52.524;14.104;2022-08-18T10:50:00;9.73;;;8.80;;
3121;SDS011;1571;52.524;14.104;2022-08-18T10:52:37;14.07;;;8.20;;
3121;SDS011;1571;52.524;14.104;2022-08-18T10:55:41;10.17;;;9.27;;
3121;SDS011;1571;52.524;14.104;2022-08-18T10:58:25;11.63;;;8.47;;
3121;SDS011;1571;52.524;14.104;2022-08-18T11:01:15;9.47;;;8.77;;
3121;SDS011;1571;52.524;14.104;2022-08-18T11:03:59;12.37;;;10.43;;
3121;SDS011;1571;52.524;14.104;2022-08-18T11:06:41;9.00;;;8.20;;
3121;SDS011;1571;52.524;14.104;2022-08-18T11:09:17;10.90;;;10.00;;
3121;SDS011;1571;52.524;14.104;2022-08-18T11:11:53;7.83;;;7.20;;
3121;SDS011;1571;52.524;14.104;2022-08-18T11:14:36;12.50;;;7.60;;
3121;SDS011;1571;52.524;14.104;2022-08-18T11:17:36;6.33;;;5.83;;
3121;SDS011;1571;52.524;14.104;2022-08-18T11:20:10;7.00;;;6.50;;
3121;SDS011;1571;52.524;14.104;2022-08-18T11:22:51;7.57;;;6.47;;
3121;SDS011;1571;52.524;14.104;2022-08-18T11:25:24;11.03;;;7.70;;
3121;SDS011;1571;52.524;14.104;2022-08-18T11:27:55;7.67;;;6.97;;
3121;SDS011;1571;52.524;14.104;2022-08-18T11:30:26;6.67;;;6.03;;
3121;SDS011;1571;52.524;14.104;2022-08-18T11:33:01;5.93;;;5.50;;
3121;SDS011;1571;52.524;14.104;2022-08-18T11:35:31;4.53;;;4.10;;
3121;SDS011;1571;52.524;14.104;2022-08-18T11:38:02;4.73;;;4.33;;
3121;SDS011;1571;52.524;14.104;2022-08-18T11:40:39;5.83;;;4.40;;
3121;SDS011;1571;52.524;14.104;2022-08-18T11:43:30;4.63;;;4.23;;
3121;SDS011;1571;52.524;14.104;2022-08-18T11:46:13;5.03;;;4.73;;
3121;SDS011;1571;52.524;14.104;2022-08-18T11:48:57;5.00;;;4.70;;
3121;SDS011;1571;52.524;14.104;2022-08-18T11:51:28;5.80;;;4.20;;
3121;SDS011;1571;52.524;14.104;2022-08-18T11:53:59;4.70;;;4.47;;
3121;SDS011;1571;52.524;14.104;2022-08-18T11:56:31;3.77;;;3.57;;
3121;SDS011;1571;52.524;14.104;2022-08-18T11:59:06;8.07;;;4.93;;
3121;SDS011;1571;52.524;14.104;2022-08-18T12:01:39;4.50;;;4.23;;
3121;SDS011;1571;52.524;14.104;2022-08-18T12:04:36;4.43;;;4.13;;
3121;SDS011;1571;52.524;14.104;2022-08-18T12:07:09;4.63;;;4.17;;
3121;SDS011;1571;52.524;14.104;2022-08-18T12:09:40;4.70;;;4.40;;
3121;SDS011;1571;52.524;14.104;2022-08-18T12:12:31;5.30;;;4.83;;
3121;SDS011;1571;52.524;14.104;2022-08-18T12:15:03;5.30;;;4.90;;
3121;SDS011;1571;52.524;14.104;2022-08-18T12:17:56;4.37;;;4.17;;
3121;SDS011;1571;52.524;14.104;2022-08-18T12:20:26;5.77;;;4.23;;
3121;SDS011;1571;52.524;14.104;2022-08-18T12:22:55;5.17;;;4.70;;
3121;SDS011;1571;52.524;14.104;2022-08-18T12:25:24;5.90;;;5.50;;
3121;SDS011;1571;52.524;14.104;2022-08-18T12:27:52;4.70;;;4.40;;
3121;SDS011;1571;52.524;14.104;2022-08-18T12:30:20;5.03;;;4.70;;
3121;SDS011;1571;52.524;14.104;2022-08-18T12:33:10;5.93;;;4.80;;
3121;SDS011;1571;52.524;14.104;2022-08-18T12:35:38;6.10;;;5.60;;
3121;SDS011;1571;52.524;14.104;2022-08-18T12:38:08;5.50;;;5.13;;
3121;SDS011;1571;52.524;14.104;2022-08-18T12:40:40;5.07;;;4.77;;
3121;SDS011;1571;52.524;14.104;2022-08-18T12:43:09;5.73;;;5.33;;
3121;SDS011;1571;52.524;14.104;2022-08-18T12:46:07;5.13;;;4.80;;
3121;SDS011;1571;52.524;14.104;2022-08-18T12:48:39;4.40;;;4.10;;
3121;SDS011;1571;52.524;14.104;2022-08-18T12:51:07;7.70;;;3.90;;
3121;SDS011;1571;52.524;14.104;2022-08-18T12:53:38;4.90;;;4.60;;
3121;SDS011;1571;52.524;14.104;2022-08-18T12:56:27;4.93;;;4.63;;
3121;SDS011;1571;52.524;14.104;2022-08-18T12:58:58;5.07;;;4.47;;
3121;SDS011;1571;52.524;14.104;2022-08-18T13:01:30;6.17;;;5.37;;
3121;SDS011;1571;52.524;14.104;2022-08-18T13:04:01;5.17;;;4.80;;
3121;SDS011;1571;52.524;14.104;2022-08-18T13:06:41;5.40;;;5.10;;
3121;SDS011;1571;52.524;14.104;2022-08-18T13:09:27;5.13;;;4.67;;
3121;SDS011;1571;52.524;14.104;2022-08-18T13:12:16;5.50;;;5.07;;
3121;SDS011;1571;52.524;14.104;2022-08-18T13:14:45;5.20;;;4.67;;
3121;SDS011;1571;52.524;14.104;2022-08-18T13:17:17;5.57;;;5.27;;
3121;SDS011;1571;52.524;14.104;2022-08-18T13:20:00;5.97;;;5.43;;
3121;SDS011;1571;52.524;14.104;2022-08-18T13:22:31;26.57;;;7.60;;
3121;SDS011;1571;52.524;14.104;2022-08-18T13:25:00;8.63;;;6.10;;
3121;SDS011;1571;52.524;14.104;2022-08-18T13:27:29;4.93;;;4.63;;
3121;SDS011;1571;52.524;14.104;2022-08-18T13:30:02;6.40;;;5.17;;
3121;SDS011;1571;52.524;14.104;2022-08-18T13:32:53;5.37;;;5.07;;
3121;SDS011;1571;52.524;14.104;2022-08-18T13:35:27;7.93;;;5.40;;
3121;SDS011;1571;52.524;14.104;2022-08-18T13:38:10;5.70;;;5.40;;
3121;SDS011;1571;52.524;14.104;2022-08-18T13:40:44;8.47;;;4.97;;
3121;SDS011;1571;52.524;14.104;2022-08-18T13:43:14;7.03;;;5.30;;
3121;SDS011;1571;52.524;14.104;2022-08-18T13:45:44;5.90;;;5.40;;
3121;SDS011;1571;52.524;14.104;2022-08-18T13:48:21;5.27;;;4.90;;
3121;SDS011;1571;52.524;14.104;2022-08-18T13:50:53;6.30;;;5.80;;
3121;SDS011;1571;52.524;14.104;2022-08-18T13:53:22;5.60;;;5.20;;
3121;SDS011;1571;52.524;14.104;2022-08-18T13:55:53;5.90;;;5.40;;
3121;SDS011;1571;52.524;14.104;2022-08-18T13:58:25;5.77;;;5.37;;
3121;SDS011;1571;52.524;14.104;2022-08-18T14:00:55;9.03;;;6.00;;
3121;SDS011;1571;52.524;14.104;2022-08-18T14:03:44;6.37;;;5.73;;
3121;SDS011;1571;52.524;14.104;2022-08-18T14:06:15;6.00;;;5.50;;
3121;SDS011;1571;52.524;14.104;2022-08-18T14:08:48;6.30;;;5.90;;
3121;SDS011;1571;52.524;14.104;2022-08-18T14:11:17;6.57;;;5.73;;
3121;SDS011;1571;52.524;14.104;2022-08-18T14:13:47;5.90;;;5.40;;
3121;SDS011;1571;52.524;14.104;2022-08-18T14:16:15;6.47;;;5.83;;
3121;SDS011;1571;52.524;14.104;2022-08-18T14:18:45;5.40;;;5.00;;
3121;SDS011;1571;52.524;14.104;2022-08-18T14:21:38;5.50;;;5.00;;
3121;SDS011;1571;52.524;14.104;2022-08-18T14:24:27;13.47;;;7.33;;
3121;SDS011;1571;52.524;14.104;2022-08-18T14:27:15;15.80;;;6.47;;
3121;SDS011;1571;52.524;14.104;2022-08-18T14:29:43;14.87;;;8.80;;
3121;SDS011;1571;52.524;14.104;2022-08-18T14:32:17;18.40;;;8.60;;
3121;SDS011;1571;52.524;14.104;2022-08-18T14:34:56;10.47;;;9.37;;
3121;SDS011;1571;52.524;14.104;2022-08-18T14:37:28;9.10;;;8.30;;
3121;SDS011;1571;52.524;14.104;2022-08-18T14:39:59;10.93;;;9.93;;
3121;SDS011;1571;52.524;14.104;2022-08-18T14:42:30;10.83;;;8.73;;
3121;SDS011;1571;52.524;14.104;2022-08-18T14:45:18;15.60;;;10.17;;
3121;SDS011;1571;52.524;14.104;2022-08-18T14:48:00;20.30;;;9.80;;
3121;SDS011;1571;52.524;14.104;2022-08-18T14:50:33;11.20;;;8.50;;
3121;SDS011;1571;52.524;14.104;2022-08-18T14:53:04;14.87;;;7.10;;
3121;SDS011;1571;52.524;14.104;2022-08-18T14:55:32;11.83;;;8.90;;
3121;SDS011;1571;52.524;14.104;2022-08-18T14:58:01;14.47;;;10.00;;
3121;SDS011;1571;52.524;14.104;2022-08-18T15:00:33;10.27;;;8.43;;
3121;SDS011;1571;52.524;14.104;2022-08-18T15:03:20;12.23;;;7.67;;
3121;SDS011;1571;52.524;14.104;2022-08-18T15:05:58;8.23;;;7.43;;
3121;SDS011;1571;52.524;14.104;2022-08-18T15:08:32;8.17;;;7.47;;
3121;SDS011;1571;52.524;14.104;2022-08-18T15:11:02;9.57;;;8.67;;
3121;SDS011;1571;52.524;14.104;2022-08-18T15:13:38;9.23;;;8.43;;
3121;SDS011;1571;52.524;14.104;2022-08-18T15:16:11;10.60;;;9.63;;
3121;SDS011;1571;52.524;14.104;2022-08-18T15:18:39;10.17;;;9.23;;
3121;SDS011;1571;52.524;14.104;2022-08-18T15:21:09;14.80;;;9.03;;
3121;SDS011;1571;52.524;14.104;2022-08-18T15:24:06;9.27;;;6.33;;
3121;SDS011;1571;52.524;14.104;2022-08-18T15:26:52;8.67;;;7.90;;
3121;SDS011;1571;52.524;14.104;2022-08-18T15:29:24;10.73;;;9.00;;
3121;SDS011;1571;52.524;14.104;2022-08-18T15:31:55;10.60;;;9.70;;
3121;SDS011;1571;52.524;14.104;2022-08-18T15:34:31;8.40;;;7.80;;
3121;SDS011;1571;52.524;14.104;2022-08-18T15:37:12;9.20;;;8.33;;
3121;SDS011;1571;52.524;14.104;2022-08-18T15:39:47;8.70;;;8.00;;
3121;SDS011;1571;52.524;14.104;2022-08-18T15:42:22;10.07;;;9.07;;
3121;SDS011;1571;52.524;14.104;2022-08-18T15:44:50;10.53;;;9.73;;
3121;SDS011;1571;52.524;14.104;2022-08-18T15:47:19;10.37;;;9.37;;
3121;SDS011;1571;52.524;14.104;2022-08-18T15:49:51;9.60;;;8.67;;
3121;SDS011;1571;52.524;14.104;2022-08-18T15:52:21;7.50;;;6.90;;
3121;SDS011;1571;52.524;14.104;2022-08-18T15:54:53;8.27;;;7.47;;
3121;SDS011;1571;52.524;14.104;2022-08-18T15:57:27;7.30;;;6.70;;
3121;SDS011;1571;52.524;14.104;2022-08-18T16:00:05;7.43;;;6.93;;